sensor_id;sensor_type;location;lat;lon;timestamp;temperature;humidity
52435;DHT22;38354;52.892;6.148;2024-03-22T04:01:41;10.50;99.90
52435;DHT22;38354;52.892;6.148;2024-03-22T04:04:07;10.60;99.90
52435;DHT22;38354;52.892;6.148;2024-03-22T04:06:32;10.50;99.90
52435;DHT22;38354;52.892;6.148;2024-03-22T04:08:59;10.50;99.90
52435;DHT22;38354;52.892;6.148;2024-03-22T04:11:26;10.50;99.90
52435;DHT22;38354;52.892;6.148;2024-03-22T04:13:51;10.50;99.90
52435;DHT22;38354;52.892;6.148;2024-03-22T04:16:17;10.50;99.90
52435;DHT22;38354;52.892;6.148;2024-03-22T04:18:42;10.50;99.90
52435;DHT22;38354;52.892;6.148;2024-03-22T04:21:08;10.50;99.90
52435;DHT22;38354;52.892;6.148;2024-03-22T04:23:34;10.50;99.90
52435;DHT22;38354;52.892;6.148;2024-03-22T04:26:00;10.50;99.90
52435;DHT22;38354;52.892;6.148;2024-03-22T04:28:30;10.50;99.90
52435;DHT22;38354;52.892;6.148;2024-03-22T04:30:59;10.40;99.90
52435;DHT22;38354;52.892;6.148;2024-03-22T04:33:26;10.40;99.90
52435;DHT22;38354;52.892;6.148;2024-03-22T04:35:52;10.40;99.90
52435;DHT22;38354;52.892;6.148;2024-03-22T04:38:18;10.40;99.90
52435;DHT22;38354;52.892;6.148;2024-03-22T04:40:43;10.40;99.90
52435;DHT22;38354;52.892;6.148;2024-03-22T04:43:09;10.40;99.90
52435;DHT22;38354;52.892;6.148;2024-03-22T04:45:35;10.40;99.90
52435;DHT22;38354;52.892;6.148;2024-03-22T04:48:04;10.40;99.90
52435;DHT22;38354;52.892;6.148;2024-03-22T04:50:30;10.40;99.90
52435;DHT22;38354;52.892;6.148;2024-03-22T04:52:56;10.40;99.90
52435;DHT22;38354;52.892;6.148;2024-03-22T04:55:22;10.30;99.90
52435;DHT22;38354;52.892;6.148;2024-03-22T04:57:48;10.30;99.90
52435;DHT22;38354;52.892;6.148;2024-03-22T05:00:14;10.40;99.90
52435;DHT22;38354;52.892;6.148;2024-03-22T05:02:40;10.30;99.90
52435;DHT22;38354;52.892;6.148;2024-03-22T05:05:06;10.40;99.90
52435;DHT22;38354;52.892;6.148;2024-03-22T05:07:32;10.30;99.90
52435;DHT22;38354;52.892;6.148;2024-03-22T05:09:58;10.40;99.90
52435;DHT22;38354;52.892;6.148;2024-03-22T05:12:24;10.30;99.90
52435;DHT22;38354;52.892;6.148;2024-03-22T05:14:49;10.30;99.90
52435;DHT22;38354;52.892;6.148;2024-03-22T05:17:15;10.30;99.90
52435;DHT22;38354;52.892;6.148;2024-03-22T05:19:41;10.40;99.90
52435;DHT22;38354;52.892;6.148;2024-03-22T05:22:06;10.40;99.90
52435;DHT22;38354;52.892;6.148;2024-03-22T05:24:32;10.30;99.90
52435;DHT22;38354;52.892;6.148;2024-03-22T05:26:58;10.40;99.90
52435;DHT22;38354;52.892;6.148;2024-03-22T05:29:25;10.30;99.90
52435;DHT22;38354;52.892;6.148;2024-03-22T05:31:51;10.30;99.90
52435;DHT22;38354;52.892;6.148;2024-03-22T05:34:18;10.30;99.90
52435;DHT22;38354;52.892;6.148;2024-03-22T05:36:45;10.30;99.90
52435;DHT22;38354;52.892;6.148;2024-03-22T05:39:11;10.20;99.90
52435;DHT22;38354;52.892;6.148;2024-03-22T05:41:37;10.20;99.90
52435;DHT22;38354;52.892;6.148;2024-03-22T05:44:03;10.20;99.90
52435;DHT22;38354;52.892;6.148;2024-03-22T05:46:30;10.20;99.90
52435;DHT22;38354;52.892;6.148;2024-03-22T05:48:57;10.20;99.90
52435;DHT22;38354;52.892;6.148;2024-03-22T05:51:24;10.20;99.90
52435;DHT22;38354;52.892;6.148;2024-03-22T05:53:50;10.10;99.90
52435;DHT22;38354;52.892;6.148;2024-03-22T05:56:16;10.20;99.90
52435;DHT22;38354;52.892;6.148;2024-03-22T05:58:42;10.20;99.90
52435;DHT22;38354;52.892;6.148;2024-03-22T06:01:07;10.20;99.90
52435;DHT22;38354;52.892;6.148;2024-03-22T06:03:33;10.10;99.90
52435;DHT22;38354;52.892;6.148;2024-03-22T06:06:00;10.10;99.90
52435;DHT22;38354;52.892;6.148;2024-03-22T06:08:26;10.20;99.90
52435;DHT22;38354;52.892;6.148;2024-03-22T06:10:53;10.10;99.90
52435;DHT22;38354;52.892;6.148;2024-03-22T06:13:18;10.10;99.90
52435;DHT22;38354;52.892;6.148;2024-03-22T06:15:48;10.10;99.90
52435;DHT22;38354;52.892;6.148;2024-03-22T06:18:14;10.10;99.90
52435;DHT22;38354;52.892;6.148;2024-03-22T06:20:40;10.10;99.90
52435;DHT22;38354;52.892;6.148;2024-03-22T06:23:05;10.10;99.90
52435;DHT22;38354;52.892;6.148;2024-03-22T06:25:31;10.10;99.90
52435;DHT22;38354;52.892;6.148;2024-03-22T06:27:57;10.10;99.90
52435;DHT22;38354;52.892;6.148;2024-03-22T06:30:22;10.10;99.90
52435;DHT22;38354;52.892;6.148;2024-03-22T06:32:48;10.20;99.90
52435;DHT22;38354;52.892;6.148;2024-03-22T06:35:14;10.20;99.90
52435;DHT22;38354;52.892;6.148;2024-03-22T06:37:40;10.20;99.90
52435;DHT22;38354;52.892;6.148;2024-03-22T06:40:07;10.20;99.90
52435;DHT22;38354;52.892;6.148;2024-03-22T06:42:33;10.20;99.90
52435;DHT22;38354;52.892;6.148;2024-03-22T06:44:58;10.20;99.90
52435;DHT22;38354;52.892;6.148;2024-03-22T06:47:24;10.20;99.90
52435;DHT22;38354;52.892;6.148;2024-03-22T06:49:50;10.20;99.90
52435;DHT22;38354;52.892;6.148;2024-03-22T06:52:15;10.20;99.90
52435;DHT22;38354;52.892;6.148;2024-03-22T06:54:41;10.20;99.90
52435;DHT22;38354;52.892;6.148;2024-03-22T06:57:07;10.20;99.90
52435;DHT22;38354;52.892;6.148;2024-03-22T06:59:33;10.20;99.90
52435;DHT22;38354;52.892;6.148;2024-03-22T07:01:59;10.20;99.90
52435;DHT22;38354;52.892;6.148;2024-03-22T07:04:25;10.20;99.90
52435;DHT22;38354;52.892;6.148;2024-03-22T07:06:50;10.20;99.90
52435;DHT22;38354;52.892;6.148;2024-03-22T07:09:16;10.20;99.90
52435;DHT22;38354;52.892;6.148;2024-03-22T07:11:41;10.30;99.90
52435;DHT22;38354;52.892;6.148;2024-03-22T07:14:07;10.30;99.90
52435;DHT22;38354;52.892;6.148;2024-03-22T07:16:33;10.30;99.90
52435;DHT22;38354;52.892;6.148;2024-03-22T07:18:59;10.30;99.90
52435;DHT22;38354;52.892;6.148;2024-03-22T07:21:24;10.30;99.90
52435;DHT22;38354;52.892;6.148;2024-03-22T07:23:50;10.30;99.90
52435;DHT22;38354;52.892;6.148;2024-03-22T07:26:16;10.30;99.90
52435;DHT22;38354;52.892;6.148;2024-03-22T07:28:41;10.30;99.90
52435;DHT22;38354;52.892;6.148;2024-03-22T07:31:07;10.30;99.90
52435;DHT22;38354;52.892;6.148;2024-03-22T07:33:33;10.30;99.90
52435;DHT22;38354;52.892;6.148;2024-03-22T07:36:05;10.40;99.90
52435;DHT22;38354;52.892;6.148;2024-03-22T07:38:31;10.30;99.90
52435;DHT22;38354;52.892;6.148;2024-03-22T07:40:57;10.40;99.90
52435;DHT22;38354;52.892;6.148;2024-03-22T07:43:22;10.40;99.90
52435;DHT22;38354;52.892;6.148;2024-03-22T07:45:48;10.40;99.90
52435;DHT22;38354;52.892;6.148;2024-03-22T07:48:14;10.40;99.90
52435;DHT22;38354;52.892;6.148;2024-03-22T07:50:40;10.40;99.90
52435;DHT22;38354;52.892;6.148;2024-03-22T07:53:06;10.40;99.90
52435;DHT22;38354;52.892;6.148;2024-03-22T07:55:31;10.40;99.90
52435;DHT22;38354;52.892;6.148;2024-03-22T07:57:57;10.40;99.90
52435;DHT22;38354;52.892;6.148;2024-03-22T08:00:23;10.40;99.90
52435;DHT22;38354;52.892;6.148;2024-03-22T08:02:51;10.30;99.90
52435;DHT22;38354;52.892;6.148;2024-03-22T08:05:17;10.40;99.90
52435;DHT22;38354;52.892;6.148;2024-03-22T08:07:42;10.30;99.90
52435;DHT22;38354;52.892;6.148;2024-03-22T08:10:09;10.30;99.90
52435;DHT22;38354;52.892;6.148;2024-03-22T08:12:35;10.30;99.90
52435;DHT22;38354;52.892;6.148;2024-03-22T08:15:01;10.20;99.90
52435;DHT22;38354;52.892;6.148;2024-03-22T08:17:27;10.20;99.90
52435;DHT22;38354;52.892;6.148;2024-03-22T08:19:53;10.20;99.90
52435;DHT22;38354;52.892;6.148;2024-03-22T08:22:19;10.20;99.90
52435;DHT22;38354;52.892;6.148;2024-03-22T08:24:44;10.20;99.90
52435;DHT22;38354;52.892;6.148;2024-03-22T08:27:10;10.10;99.90
52435;DHT22;38354;52.892;6.148;2024-03-22T08:29:35;10.10;99.90
52435;DHT22;38354;52.892;6.148;2024-03-22T08:32:01;10.00;99.90
52435;DHT22;38354;52.892;6.148;2024-03-22T08:34:30;10.00;99.90
52435;DHT22;38354;52.892;6.148;2024-03-22T08:36:55;10.00;99.90
52435;DHT22;38354;52.892;6.148;2024-03-22T08:39:22;10.00;99.90
52435;DHT22;38354;52.892;6.148;2024-03-22T08:41:48;9.90;99.90
52435;DHT22;38354;52.892;6.148;2024-03-22T08:44:14;9.90;99.90
52435;DHT22;38354;52.892;6.148;2024-03-22T08:46:40;9.90;99.90
52435;DHT22;38354;52.892;6.148;2024-03-22T08:49:05;9.90;99.90
52435;DHT22;38354;52.892;6.148;2024-03-22T08:51:34;9.90;99.90
52435;DHT22;38354;52.892;6.148;2024-03-22T08:53:59;9.90;99.90
52435;DHT22;38354;52.892;6.148;2024-03-22T08:56:26;9.90;99.90
52435;DHT22;38354;52.892;6.148;2024-03-22T08:58:52;9.90;99.90
52435;DHT22;38354;52.892;6.148;2024-03-22T09:01:18;10.00;99.90
52435;DHT22;38354;52.892;6.148;2024-03-22T09:03:44;9.90;99.90
52435;DHT22;38354;52.892;6.148;2024-03-22T09:06:15;10.00;99.90
52435;DHT22;38354;52.892;6.148;2024-03-22T09:08:40;9.90;99.90
52435;DHT22;38354;52.892;6.148;2024-03-22T09:11:06;10.00;99.90
52435;DHT22;38354;52.892;6.148;2024-03-22T09:13:32;10.00;99.90
52435;DHT22;38354;52.892;6.148;2024-03-22T09:16:01;10.00;99.90
52435;DHT22;38354;52.892;6.148;2024-03-22T09:18:27;9.90;99.90
52435;DHT22;38354;52.892;6.148;2024-03-22T09:20:53;9.90;99.90
52435;DHT22;38354;52.892;6.148;2024-03-22T09:23:19;9.90;99.90
52435;DHT22;38354;52.892;6.148;2024-03-22T09:25:45;9.90;99.90
52435;DHT22;38354;52.892;6.148;2024-03-22T09:28:11;9.90;99.90
52435;DHT22;38354;52.892;6.148;2024-03-22T09:30:40;9.90;99.90
52435;DHT22;38354;52.892;6.148;2024-03-22T09:33:07;9.90;99.90
52435;DHT22;38354;52.892;6.148;2024-03-22T09:35:35;9.90;99.90
52435;DHT22;38354;52.892;6.148;2024-03-22T09:38:01;9.90;99.90
52435;DHT22;38354;52.892;6.148;2024-03-22T09:40:30;9.90;99.90
52435;DHT22;38354;52.892;6.148;2024-03-22T09:43:01;9.80;99.90
52435;DHT22;38354;52.892;6.148;2024-03-22T09:45:31;9.80;99.90
52435;DHT22;38354;52.892;6.148;2024-03-22T09:47:58;9.90;99.90
52435;DHT22;38354;52.892;6.148;2024-03-22T09:50:25;9.90;99.90
52435;DHT22;38354;52.892;6.148;2024-03-22T09:52:52;9.90;99.90
52435;DHT22;38354;52.892;6.148;2024-03-22T09:55:22;9.90;99.90
52435;DHT22;38354;52.892;6.148;2024-03-22T09:57:49;9.90;99.90
52435;DHT22;38354;52.892;6.148;2024-03-22T10:00:19;10.00;99.90
52435;DHT22;38354;52.892;6.148;2024-03-22T10:02:48;9.90;99.90
52435;DHT22;38354;52.892;6.148;2024-03-22T10:05:15;10.00;99.90
52435;DHT22;38354;52.892;6.148;2024-03-22T10:07:43;9.90;99.90
52435;DHT22;38354;52.892;6.148;2024-03-22T10:10:09;9.90;99.90
52435;DHT22;38354;52.892;6.148;2024-03-22T10:12:35;9.90;99.90
52435;DHT22;38354;52.892;6.148;2024-03-22T10:15:01;9.90;99.90
52435;DHT22;38354;52.892;6.148;2024-03-22T10:17:28;9.90;99.90
52435;DHT22;38354;52.892;6.148;2024-03-22T10:19:54;10.00;99.90
52435;DHT22;38354;52.892;6.148;2024-03-22T10:22:20;10.00;99.90
52435;DHT22;38354;52.892;6.148;2024-03-22T10:24:46;10.00;99.90
52435;DHT22;38354;52.892;6.148;2024-03-22T10:27:11;10.00;99.90
52435;DHT22;38354;52.892;6.148;2024-03-22T10:29:37;10.00;99.90
52435;DHT22;38354;52.892;6.148;2024-03-22T10:32:03;10.00;99.90
52435;DHT22;38354;52.892;6.148;2024-03-22T10:34:29;10.10;99.90
52435;DHT22;38354;52.892;6.148;2024-03-22T10:37:00;10.10;99.90
52435;DHT22;38354;52.892;6.148;2024-03-22T10:39:26;10.10;99.90
52435;DHT22;38354;52.892;6.148;2024-03-22T10:41:53;10.10;99.90
52435;DHT22;38354;52.892;6.148;2024-03-22T10:44:18;10.10;99.90
52435;DHT22;38354;52.892;6.148;2024-03-22T10:46:48;10.10;99.90
52435;DHT22;38354;52.892;6.148;2024-03-22T10:49:24;10.10;99.90
52435;DHT22;38354;52.892;6.148;2024-03-22T10:51:52;10.10;99.90
52435;DHT22;38354;52.892;6.148;2024-03-22T10:54:21;10.10;99.90
52435;DHT22;38354;52.892;6.148;2024-03-22T10:56:48;10.10;99.90
52435;DHT22;38354;52.892;6.148;2024-03-22T10:59:22;10.10;99.90
52435;DHT22;38354;52.892;6.148;2024-03-22T11:01:48;10.10;99.90
52435;DHT22;38354;52.892;6.148;2024-03-22T11:04:19;10.20;99.90
52435;DHT22;38354;52.892;6.148;2024-03-22T11:06:49;10.20;99.90
52435;DHT22;38354;52.892;6.148;2024-03-22T11:09:21;10.20;99.90
52435;DHT22;38354;52.892;6.148;2024-03-22T11:11:48;10.10;99.90
52435;DHT22;38354;52.892;6.148;2024-03-22T11:14:14;10.10;99.90
52435;DHT22;38354;52.892;6.148;2024-03-22T11:16:47;10.00;99.90
52435;DHT22;38354;52.892;6.148;2024-03-22T11:19:12;10.00;99.90
52435;DHT22;38354;52.892;6.148;2024-03-22T11:21:38;10.00;99.90
52435;DHT22;38354;52.892;6.148;2024-03-22T11:24:05;10.10;99.90
52435;DHT22;38354;52.892;6.148;2024-03-22T11:26:37;10.00;99.90
52435;DHT22;38354;52.892;6.148;2024-03-22T11:29:03;10.10;99.90
52435;DHT22;38354;52.892;6.148;2024-03-22T11:31:30;10.00;99.90
52435;DHT22;38354;52.892;6.148;2024-03-22T11:33:56;10.00;99.90
52435;DHT22;38354;52.892;6.148;2024-03-22T11:36:23;10.00;99.90
52435;DHT22;38354;52.892;6.148;2024-03-22T11:38:49;10.00;99.90
52435;DHT22;38354;52.892;6.148;2024-03-22T11:41:28;10.00;99.90
52435;DHT22;38354;52.892;6.148;2024-03-22T11:43:55;9.90;99.90
52435;DHT22;38354;52.892;6.148;2024-03-22T11:46:21;9.90;99.90
52435;DHT22;38354;52.892;6.148;2024-03-22T11:48:54;10.00;99.90
52435;DHT22;38354;52.892;6.148;2024-03-22T11:56:25;9.80;99.90
52435;DHT22;38354;52.892;6.148;2024-03-22T13:21:18;10.20;99.90
52435;DHT22;38354;52.892;6.148;2024-03-22T13:24:07;10.20;99.90
52435;DHT22;38354;52.892;6.148;2024-03-22T13:27:30;10.30;99.90
52435;DHT22;38354;52.892;6.148;2024-03-22T13:47:40;10.10;99.90
52435;DHT22;38354;52.892;6.148;2024-03-22T13:50:19;10.10;99.90
52435;DHT22;38354;52.892;6.148;2024-03-22T13:52:47;10.00;99.90
52435;DHT22;38354;52.892;6.148;2024-03-22T13:55:32;10.00;99.90
52435;DHT22;38354;52.892;6.148;2024-03-22T14:01:05;10.00;99.90
52435;DHT22;38354;52.892;6.148;2024-03-22T14:03:46;10.00;99.90
52435;DHT22;38354;52.892;6.148;2024-03-22T14:06:52;10.00;99.90
52435;DHT22;38354;52.892;6.148;2024-03-22T14:09:18;10.10;99.90
52435;DHT22;38354;52.892;6.148;2024-03-22T14:11:44;10.00;99.90
52435;DHT22;38354;52.892;6.148;2024-03-22T14:14:24;10.00;99.90
52435;DHT22;38354;52.892;6.148;2024-03-22T14:27:42;10.00;99.90
52435;DHT22;38354;52.892;6.148;2024-03-22T14:31:08;10.00;99.90
52435;DHT22;38354;52.892;6.148;2024-03-22T14:33:46;9.90;99.90
52435;DHT22;38354;52.892;6.148;2024-03-22T14:36:20;9.80;99.90
52435;DHT22;38354;52.892;6.148;2024-03-22T14:38:49;9.70;99.90
52435;DHT22;38354;52.892;6.148;2024-03-22T15:10:14;9.90;99.90
52435;DHT22;38354;52.892;6.148;2024-03-22T15:20:09;9.90;99.90
52435;DHT22;38354;52.892;6.148;2024-03-22T15:22:57;9.80;99.90
52435;DHT22;38354;52.892;6.148;2024-03-22T15:26:38;9.90;99.90
52435;DHT22;38354;52.892;6.148;2024-03-22T15:30:07;9.90;99.90
52435;DHT22;38354;52.892;6.148;2024-03-22T15:36:04;9.90;99.90
52435;DHT22;38354;52.892;6.148;2024-03-22T15:41:53;9.80;99.90
52435;DHT22;38354;52.892;6.148;2024-03-22T15:44:19;9.80;99.90
52435;DHT22;38354;52.892;6.148;2024-03-22T15:46:45;9.80;99.90
52435;DHT22;38354;52.892;6.148;2024-03-22T15:49:11;9.80;99.90
52435;DHT22;38354;52.892;6.148;2024-03-22T15:51:36;9.80;99.90
52435;DHT22;38354;52.892;6.148;2024-03-22T15:54:05;9.70;99.90
52435;DHT22;38354;52.892;6.148;2024-03-22T15:56:31;9.70;99.90
52435;DHT22;38354;52.892;6.148;2024-03-22T15:58:57;9.70;99.90
52435;DHT22;38354;52.892;6.148;2024-03-22T16:01:22;9.70;99.90
52435;DHT22;38354;52.892;6.148;2024-03-22T16:03:48;9.70;99.90
52435;DHT22;38354;52.892;6.148;2024-03-22T16:06:14;9.70;99.90
52435;DHT22;38354;52.892;6.148;2024-03-22T16:08:40;9.70;99.90
52435;DHT22;38354;52.892;6.148;2024-03-22T16:11:05;9.70;99.90
52435;DHT22;38354;52.892;6.148;2024-03-22T16:13:31;9.60;99.90
52435;DHT22;38354;52.892;6.148;2024-03-22T16:15:56;9.60;99.90
52435;DHT22;38354;52.892;6.148;2024-03-22T16:18:22;9.60;99.90
52435;DHT22;38354;52.892;6.148;2024-03-22T16:20:47;9.60;99.90
52435;DHT22;38354;52.892;6.148;2024-03-22T16:23:13;9.50;99.90
52435;DHT22;38354;52.892;6.148;2024-03-22T16:25:39;9.50;99.90
52435;DHT22;38354;52.892;6.148;2024-03-22T16:28:05;9.50;99.90
52435;DHT22;38354;52.892;6.148;2024-03-22T16:30:31;9.50;99.90
52435;DHT22;38354;52.892;6.148;2024-03-22T16:32:57;9.50;99.90
52435;DHT22;38354;52.892;6.148;2024-03-22T16:35:23;9.50;99.90
52435;DHT22;38354;52.892;6.148;2024-03-22T16:37:49;9.50;99.90
52435;DHT22;38354;52.892;6.148;2024-03-22T16:40:19;9.50;99.90
52435;DHT22;38354;52.892;6.148;2024-03-22T16:42:46;9.40;99.90
52435;DHT22;38354;52.892;6.148;2024-03-22T16:45:13;9.40;99.90
52435;DHT22;38354;52.892;6.148;2024-03-22T16:47:40;9.40;99.90
52435;DHT22;38354;52.892;6.148;2024-03-22T16:50:07;9.40;99.90
52435;DHT22;38354;52.892;6.148;2024-03-22T16:52:33;9.40;99.90
52435;DHT22;38354;52.892;6.148;2024-03-22T16:55:00;9.40;99.90
52435;DHT22;38354;52.892;6.148;2024-03-22T16:57:26;9.30;99.90
52435;DHT22;38354;52.892;6.148;2024-03-22T16:59:52;9.20;99.90
52435;DHT22;38354;52.892;6.148;2024-03-22T17:02:18;9.20;99.90
52435;DHT22;38354;52.892;6.148;2024-03-22T17:04:43;9.20;99.90
52435;DHT22;38354;52.892;6.148;2024-03-22T17:07:09;9.20;99.90
52435;DHT22;38354;52.892;6.148;2024-03-22T17:09:35;9.20;99.90
52435;DHT22;38354;52.892;6.148;2024-03-22T17:12:01;9.10;99.90
52435;DHT22;38354;52.892;6.148;2024-03-22T17:14:28;9.20;99.90
52435;DHT22;38354;52.892;6.148;2024-03-22T17:16:55;9.20;99.90
52435;DHT22;38354;52.892;6.148;2024-03-22T17:19:21;9.10;99.90
52435;DHT22;38354;52.892;6.148;2024-03-22T17:21:47;9.10;99.90
52435;DHT22;38354;52.892;6.148;2024-03-22T17:24:18;9.00;99.90
52435;DHT22;38354;52.892;6.148;2024-03-22T17:26:55;9.00;99.90
52435;DHT22;38354;52.892;6.148;2024-03-22T17:29:46;9.00;99.90
52435;DHT22;38354;52.892;6.148;2024-03-22T17:32:12;9.00;99.90
52435;DHT22;38354;52.892;6.148;2024-03-22T17:34:37;9.00;99.90
52435;DHT22;38354;52.892;6.148;2024-03-22T17:37:03;9.00;99.90
52435;DHT22;38354;52.892;6.148;2024-03-22T17:39:29;8.90;99.90
52435;DHT22;38354;52.892;6.148;2024-03-22T17:41:57;8.90;99.90
52435;DHT22;38354;52.892;6.148;2024-03-22T17:44:23;8.90;99.90
52435;DHT22;38354;52.892;6.148;2024-03-22T17:46:49;8.90;99.90
52435;DHT22;38354;52.892;6.148;2024-03-22T17:49:17;8.80;99.90
52435;DHT22;38354;52.892;6.148;2024-03-22T17:51:44;8.80;99.90
52435;DHT22;38354;52.892;6.148;2024-03-22T17:54:09;8.80;99.90
52435;DHT22;38354;52.892;6.148;2024-03-22T17:56:35;8.80;99.90
52435;DHT22;38354;52.892;6.148;2024-03-22T17:59:02;8.70;99.90
52435;DHT22;38354;52.892;6.148;2024-03-22T18:01:28;8.70;99.90
52435;DHT22;38354;52.892;6.148;2024-03-22T18:03:55;8.70;99.90
52435;DHT22;38354;52.892;6.148;2024-03-22T18:06:21;8.70;99.90
52435;DHT22;38354;52.892;6.148;2024-03-22T18:08:46;8.60;99.90
52435;DHT22;38354;52.892;6.148;2024-03-22T18:11:13;8.60;99.90
52435;DHT22;38354;52.892;6.148;2024-03-22T18:13:38;8.60;99.90
52435;DHT22;38354;52.892;6.148;2024-03-22T18:16:05;8.50;99.90
52435;DHT22;38354;52.892;6.148;2024-03-22T18:18:31;8.50;99.90
52435;DHT22;38354;52.892;6.148;2024-03-22T18:20:58;8.50;99.90
52435;DHT22;38354;52.892;6.148;2024-03-22T18:23:24;8.50;99.90
52435;DHT22;38354;52.892;6.148;2024-03-22T18:25:50;8.50;99.90
52435;DHT22;38354;52.892;6.148;2024-03-22T18:28:15;8.50;99.90
52435;DHT22;38354;52.892;6.148;2024-03-22T18:30:41;8.50;99.90
52435;DHT22;38354;52.892;6.148;2024-03-22T18:33:07;8.50;99.90
52435;DHT22;38354;52.892;6.148;2024-03-22T18:35:33;8.50;99.90
52435;DHT22;38354;52.892;6.148;2024-03-22T18:37:58;8.40;99.90
52435;DHT22;38354;52.892;6.148;2024-03-22T18:40:25;8.40;99.90
52435;DHT22;38354;52.892;6.148;2024-03-22T18:42:50;8.40;99.90
52435;DHT22;38354;52.892;6.148;2024-03-22T18:45:16;8.40;99.90
52435;DHT22;38354;52.892;6.148;2024-03-22T18:47:42;8.40;99.90
52435;DHT22;38354;52.892;6.148;2024-03-22T18:50:12;8.30;99.90
52435;DHT22;38354;52.892;6.148;2024-03-22T18:52:37;8.40;99.90
52435;DHT22;38354;52.892;6.148;2024-03-22T18:55:04;8.30;99.90
52435;DHT22;38354;52.892;6.148;2024-03-22T18:57:30;8.30;99.90
52435;DHT22;38354;52.892;6.148;2024-03-22T18:59:56;8.30;99.90
52435;DHT22;38354;52.892;6.148;2024-03-22T19:02:22;8.30;99.90
52435;DHT22;38354;52.892;6.148;2024-03-22T19:04:48;8.30;99.90
52435;DHT22;38354;52.892;6.148;2024-03-22T19:07:14;8.30;99.90
52435;DHT22;38354;52.892;6.148;2024-03-22T19:09:39;8.30;99.90
52435;DHT22;38354;52.892;6.148;2024-03-22T19:12:05;8.30;99.90
52435;DHT22;38354;52.892;6.148;2024-03-22T19:14:32;8.20;99.90
52435;DHT22;38354;52.892;6.148;2024-03-22T19:16:58;8.20;99.90
52435;DHT22;38354;52.892;6.148;2024-03-22T19:19:24;8.20;99.90
52435;DHT22;38354;52.892;6.148;2024-03-22T19:21:50;8.20;99.90
52435;DHT22;38354;52.892;6.148;2024-03-22T19:24:15;8.20;99.90
52435;DHT22;38354;52.892;6.148;2024-03-22T19:26:43;8.10;99.90
52435;DHT22;38354;52.892;6.148;2024-03-22T19:29:13;8.10;99.90
52435;DHT22;38354;52.892;6.148;2024-03-22T19:31:40;8.10;99.90
52435;DHT22;38354;52.892;6.148;2024-03-22T19:34:12;8.10;99.90
52435;DHT22;38354;52.892;6.148;2024-03-22T19:36:37;8.10;99.90
52435;DHT22;38354;52.892;6.148;2024-03-22T19:39:04;8.10;99.90
52435;DHT22;38354;52.892;6.148;2024-03-22T19:41:35;8.10;99.90
52435;DHT22;38354;52.892;6.148;2024-03-22T19:44:05;8.10;99.90
52435;DHT22;38354;52.892;6.148;2024-03-22T19:46:34;8.10;99.90
52435;DHT22;38354;52.892;6.148;2024-03-22T19:49:00;8.10;99.90
52435;DHT22;38354;52.892;6.148;2024-03-22T19:51:26;8.10;99.90
52435;DHT22;38354;52.892;6.148;2024-03-22T19:53:52;8.00;99.90
52435;DHT22;38354;52.892;6.148;2024-03-22T19:56:18;8.00;99.90
52435;DHT22;38354;52.892;6.148;2024-03-22T19:58:44;8.00;99.90
52435;DHT22;38354;52.892;6.148;2024-03-22T20:01:11;8.00;99.90
52435;DHT22;38354;52.892;6.148;2024-03-22T20:03:37;8.00;99.90
52435;DHT22;38354;52.892;6.148;2024-03-22T20:06:03;8.00;99.90
52435;DHT22;38354;52.892;6.148;2024-03-22T20:08:29;8.00;99.90
52435;DHT22;38354;52.892;6.148;2024-03-22T20:10:54;8.00;99.90
52435;DHT22;38354;52.892;6.148;2024-03-22T20:13:23;8.00;99.90
52435;DHT22;38354;52.892;6.148;2024-03-22T20:15:49;8.00;99.90
52435;DHT22;38354;52.892;6.148;2024-03-22T20:18:15;8.00;99.90
52435;DHT22;38354;52.892;6.148;2024-03-22T20:20:45;7.90;99.90
52435;DHT22;38354;52.892;6.148;2024-03-22T20:23:11;7.90;99.90
52435;DHT22;38354;52.892;6.148;2024-03-22T20:25:36;8.00;99.90
52435;DHT22;38354;52.892;6.148;2024-03-22T20:28:03;7.90;99.90
52435;DHT22;38354;52.892;6.148;2024-03-22T20:30:33;7.90;99.90
52435;DHT22;38354;52.892;6.148;2024-03-22T20:32:59;7.80;99.90
52435;DHT22;38354;52.892;6.148;2024-03-22T20:35:25;7.90;99.90
